sensor_id;sensor_type;location;lat;lon;timestamp;P1;P2;P0
34240;PMS7003;20503;50.200;19.508;2023-05-20T00:02:12;23;16;9
34240;PMS7003;20503;50.200;19.508;2023-05-20T00:07:19;22;15;9
34240;PMS7003;20503;50.200;19.508;2023-05-20T00:12:26;22;18;10
34240;PMS7003;20503;50.200;19.508;2023-05-20T00:17:35;17;14;9
34240;PMS7003;20503;50.200;19.508;2023-05-20T00:22:42;24;17;10
34240;PMS7003;20503;50.200;19.508;2023-05-20T00:27:50;23;18;9
34240;PMS7003;20503;50.200;19.508;2023-05-20T00:32:58;23;21;9
34240;PMS7003;20503;50.200;19.508;2023-05-20T00:38:05;23;18;10
34240;PMS7003;20503;50.200;19.508;2023-05-20T00:43:14;21;18;10
34240;PMS7003;20503;50.200;19.508;2023-05-20T00:48:21;23;18;10
34240;PMS7003;20503;50.200;19.508;2023-05-20T00:53:29;21;16;9
34240;PMS7003;20503;50.200;19.508;2023-05-20T00:58:37;18;15;9
34240;PMS7003;20503;50.200;19.508;2023-05-20T01:03:45;17;12;7
34240;PMS7003;20503;50.200;19.508;2023-05-20T01:08:52;12;10;6
34240;PMS7003;20503;50.200;19.508;2023-05-20T01:14:02;16;10;6
34240;PMS7003;20503;50.200;19.508;2023-05-20T01:19:12;12;10;7
34240;PMS7003;20503;50.200;19.508;2023-05-20T01:24:21;14;12;6
34240;PMS7003;20503;50.200;19.508;2023-05-20T01:29:25;10;8;6
34240;PMS7003;20503;50.200;19.508;2023-05-20T01:34:31;12;9;6
34240;PMS7003;20503;50.200;19.508;2023-05-20T01:39:38;9;6;5
34240;PMS7003;20503;50.200;19.508;2023-05-20T01:44:45;10;7;5
34240;PMS7003;20503;50.200;19.508;2023-05-20T01:49:53;7;6;4
34240;PMS7003;20503;50.200;19.508;2023-05-20T01:55:00;7;7;5
34240;PMS7003;20503;50.200;19.508;2023-05-20T02:00:10;12;10;5
34240;PMS7003;20503;50.200;19.508;2023-05-20T02:05:15;9;7;5
34240;PMS7003;20503;50.200;19.508;2023-05-20T02:10:23;9;6;5
34240;PMS7003;20503;50.200;19.508;2023-05-20T02:15:30;6;6;4
34240;PMS7003;20503;50.200;19.508;2023-05-20T02:20:38;11;7;5
34240;PMS7003;20503;50.200;19.508;2023-05-20T02:25:46;9;6;4
34240;PMS7003;20503;50.200;19.508;2023-05-20T02:30:53;7;6;4
34240;PMS7003;20503;50.200;19.508;2023-05-20T02:36:01;6;4;3
34240;PMS7003;20503;50.200;19.508;2023-05-20T02:41:09;8;8;3
34240;PMS7003;20503;50.200;19.508;2023-05-20T02:46:16;9;6;5
34240;PMS7003;20503;50.200;19.508;2023-05-20T02:51:24;12;10;5
34240;PMS7003;20503;50.200;19.508;2023-05-20T02:56:31;10;7;6
34240;PMS7003;20503;50.200;19.508;2023-05-20T03:01:39;9;6;5
34240;PMS7003;20503;50.200;19.508;2023-05-20T03:06:46;8;6;4
34240;PMS7003;20503;50.200;19.508;2023-05-20T03:11:54;8;6;4
34240;PMS7003;20503;50.200;19.508;2023-05-20T03:17:01;10;7;4
34240;PMS7003;20503;50.200;19.508;2023-05-20T03:22:09;9;7;5
34240;PMS7003;20503;50.200;19.508;2023-05-20T03:27:17;6;6;4
34240;PMS7003;20503;50.200;19.508;2023-05-20T03:32:24;7;5;4
34240;PMS7003;20503;50.200;19.508;2023-05-20T03:37:31;6;6;5
34240;PMS7003;20503;50.200;19.508;2023-05-20T03:42:39;9;6;4
34240;PMS7003;20503;50.200;19.508;2023-05-20T03:47:46;7;7;5
34240;PMS7003;20503;50.200;19.508;2023-05-20T03:52:54;9;7;4
34240;PMS7003;20503;50.200;19.508;2023-05-20T03:58:01;7;5;4
34240;PMS7003;20503;50.200;19.508;2023-05-20T04:03:08;8;7;6
34240;PMS7003;20503;50.200;19.508;2023-05-20T04:08:16;6;6;4
34240;PMS7003;20503;50.200;19.508;2023-05-20T04:13:24;10;8;6
34240;PMS7003;20503;50.200;19.508;2023-05-20T04:18:32;9;7;5
34240;PMS7003;20503;50.200;19.508;2023-05-20T04:23:39;9;8;6
34240;PMS7003;20503;50.200;19.508;2023-05-20T04:28:48;11;8;5
34240;PMS7003;20503;50.200;19.508;2023-05-20T04:33:56;13;6;5
34240;PMS7003;20503;50.200;19.508;2023-05-20T04:39:04;7;7;5
34240;PMS7003;20503;50.200;19.508;2023-05-20T04:44:12;7;7;5
34240;PMS7003;20503;50.200;19.508;2023-05-20T04:49:19;7;7;6
34240;PMS7003;20503;50.200;19.508;2023-05-20T04:54:27;16;13;7
34240;PMS7003;20503;50.200;19.508;2023-05-20T04:59:35;15;11;8
34240;PMS7003;20503;50.200;19.508;2023-05-20T05:04:42;18;15;11
34240;PMS7003;20503;50.200;19.508;2023-05-20T05:09:50;24;20;12
34240;PMS7003;20503;50.200;19.508;2023-05-20T05:14:58;22;16;10
34240;PMS7003;20503;50.200;19.508;2023-05-20T05:20:06;14;12;8
34240;PMS7003;20503;50.200;19.508;2023-05-20T05:25:13;14;12;8
34240;PMS7003;20503;50.200;19.508;2023-05-20T05:30:20;15;12;8
34240;PMS7003;20503;50.200;19.508;2023-05-20T05:35:28;11;10;7
34240;PMS7003;20503;50.200;19.508;2023-05-20T05:40:36;14;12;7
34240;PMS7003;20503;50.200;19.508;2023-05-20T05:45:43;12;11;7
34240;PMS7003;20503;50.200;19.508;2023-05-20T05:50:51;9;8;6
34240;PMS7003;20503;50.200;19.508;2023-05-20T06:01:12;21;18;12
34240;PMS7003;20503;50.200;19.508;2023-05-20T06:06:15;15;13;9
34240;PMS7003;20503;50.200;19.508;2023-05-20T06:11:23;12;12;8
34240;PMS7003;20503;50.200;19.508;2023-05-20T06:16:31;11;10;8
34240;PMS7003;20503;50.200;19.508;2023-05-20T06:21:39;14;10;8
34240;PMS7003;20503;50.200;19.508;2023-05-20T06:26:46;12;10;7
34240;PMS7003;20503;50.200;19.508;2023-05-20T06:31:54;14;12;8
34240;PMS7003;20503;50.200;19.508;2023-05-20T06:37:02;14;12;8
34240;PMS7003;20503;50.200;19.508;2023-05-20T06:42:10;15;10;8
34240;PMS7003;20503;50.200;19.508;2023-05-20T06:47:18;16;12;8
34240;PMS7003;20503;50.200;19.508;2023-05-20T06:52:25;18;12;8
34240;PMS7003;20503;50.200;19.508;2023-05-20T06:57:33;17;15;10
34240;PMS7003;20503;50.200;19.508;2023-05-20T07:02:41;17;12;9
34240;PMS7003;20503;50.200;19.508;2023-05-20T07:07:49;18;18;10
34240;PMS7003;20503;50.200;19.508;2023-05-20T07:12:56;16;13;9
34240;PMS7003;20503;50.200;19.508;2023-05-20T07:18:04;18;16;10
34240;PMS7003;20503;50.200;19.508;2023-05-20T07:23:12;13;11;8
34240;PMS7003;20503;50.200;19.508;2023-05-20T07:28:20;16;14;9
34240;PMS7003;20503;50.200;19.508;2023-05-20T07:33:27;16;12;8
34240;PMS7003;20503;50.200;19.508;2023-05-20T07:38:35;17;13;9
34240;PMS7003;20503;50.200;19.508;2023-05-20T07:43:42;13;13;7
34240;PMS7003;20503;50.200;19.508;2023-05-20T07:48:50;17;14;10
34240;PMS7003;20503;50.200;19.508;2023-05-20T07:53:58;13;12;7
34240;PMS7003;20503;50.200;19.508;2023-05-20T07:59:06;13;12;8
34240;PMS7003;20503;50.200;19.508;2023-05-20T08:04:14;19;16;10
34240;PMS7003;20503;50.200;19.508;2023-05-20T08:09:21;15;14;9
34240;PMS7003;20503;50.200;19.508;2023-05-20T08:14:29;19;16;11
34240;PMS7003;20503;50.200;19.508;2023-05-20T08:19:36;16;14;10
34240;PMS7003;20503;50.200;19.508;2023-05-20T08:24:45;16;13;8
34240;PMS7003;20503;50.200;19.508;2023-05-20T08:29:52;25;22;14
34240;PMS7003;20503;50.200;19.508;2023-05-20T08:35:01;22;15;10
34240;PMS7003;20503;50.200;19.508;2023-05-20T08:40:09;14;12;9
34240;PMS7003;20503;50.200;19.508;2023-05-20T08:45:17;20;16;11
34240;PMS7003;20503;50.200;19.508;2023-05-20T08:50:24;17;14;9
34240;PMS7003;20503;50.200;19.508;2023-05-20T08:55:36;13;12;9
34240;PMS7003;20503;50.200;19.508;2023-05-20T09:00:42;17;13;8
34240;PMS7003;20503;50.200;19.508;2023-05-20T09:05:48;15;13;10
34240;PMS7003;20503;50.200;19.508;2023-05-20T09:10:55;16;16;9
34240;PMS7003;20503;50.200;19.508;2023-05-20T09:16:03;16;14;10
34240;PMS7003;20503;50.200;19.508;2023-05-20T09:21:10;17;14;10
34240;PMS7003;20503;50.200;19.508;2023-05-20T09:26:18;16;14;10
34240;PMS7003;20503;50.200;19.508;2023-05-20T09:36:34;17;16;10
34240;PMS7003;20503;50.200;19.508;2023-05-20T09:46:55;28;22;14
34240;PMS7003;20503;50.200;19.508;2023-05-20T09:51:57;24;21;14
34240;PMS7003;20503;50.200;19.508;2023-05-20T09:57:04;20;17;12
34240;PMS7003;20503;50.200;19.508;2023-05-20T10:02:11;23;20;13
34240;PMS7003;20503;50.200;19.508;2023-05-20T10:12:33;28;18;13
34240;PMS7003;20503;50.200;19.508;2023-05-20T10:22:57;24;19;14
34240;PMS7003;20503;50.200;19.508;2023-05-20T10:33:09;27;22;14
34240;PMS7003;20503;50.200;19.508;2023-05-20T10:38:19;22;19;12
34240;PMS7003;20503;50.200;19.508;2023-05-20T10:43:25;22;21;13
34240;PMS7003;20503;50.200;19.508;2023-05-20T10:48:29;19;18;12
34240;PMS7003;20503;50.200;19.508;2023-05-20T10:58:40;19;19;12
34240;PMS7003;20503;50.200;19.508;2023-05-20T11:03:46;22;19;12
34240;PMS7003;20503;50.200;19.508;2023-05-20T11:08:54;22;19;12
34240;PMS7003;20503;50.200;19.508;2023-05-20T11:14:02;19;17;12
34240;PMS7003;20503;50.200;19.508;2023-05-20T11:19:14;16;16;11
34240;PMS7003;20503;50.200;19.508;2023-05-20T11:24:22;20;18;13
34240;PMS7003;20503;50.200;19.508;2023-05-20T11:29:26;17;17;12
34240;PMS7003;20503;50.200;19.508;2023-05-20T11:34:34;21;19;12
34240;PMS7003;20503;50.200;19.508;2023-05-20T11:39:41;22;20;12
34240;PMS7003;20503;50.200;19.508;2023-05-20T11:44:49;23;19;13
34240;PMS7003;20503;50.200;19.508;2023-05-20T11:49:57;22;19;12
34240;PMS7003;20503;50.200;19.508;2023-05-20T11:55:08;20;18;12
34240;PMS7003;20503;50.200;19.508;2023-05-20T12:00:13;22;20;12
34240;PMS7003;20503;50.200;19.508;2023-05-20T12:05:20;24;19;12
34240;PMS7003;20503;50.200;19.508;2023-05-20T12:10:29;19;17;12
34240;PMS7003;20503;50.200;19.508;2023-05-20T12:15:37;19;18;12
34240;PMS7003;20503;50.200;19.508;2023-05-20T12:20:45;22;19;13
34240;PMS7003;20503;50.200;19.508;2023-05-20T12:25:52;20;18;13
34240;PMS7003;20503;50.200;19.508;2023-05-20T12:31:00;23;20;12
34240;PMS7003;20503;50.200;19.508;2023-05-20T12:36:08;23;19;13
34240;PMS7003;20503;50.200;19.508;2023-05-20T12:41:15;26;19;12
34240;PMS7003;20503;50.200;19.508;2023-05-20T12:46:23;20;18;13
34240;PMS7003;20503;50.200;19.508;2023-05-20T12:51:32;24;20;12
34240;PMS7003;20503;50.200;19.508;2023-05-20T12:56:39;22;19;13
34240;PMS7003;20503;50.200;19.508;2023-05-20T13:01:47;23;20;13
34240;PMS7003;20503;50.200;19.508;2023-05-20T13:06:56;20;18;13
34240;PMS7003;20503;50.200;19.508;2023-05-20T13:12:03;17;16;12
34240;PMS7003;20503;50.200;19.508;2023-05-20T13:17:10;17;15;12
34240;PMS7003;20503;50.200;19.508;2023-05-20T13:22:18;21;18;12
34240;PMS7003;20503;50.200;19.508;2023-05-20T13:27:26;20;19;13
34240;PMS7003;20503;50.200;19.508;2023-05-20T13:32:34;19;19;12
34240;PMS7003;20503;50.200;19.508;2023-05-20T13:37:42;20;19;12
34240;PMS7003;20503;50.200;19.508;2023-05-20T13:42:50;21;18;12
34240;PMS7003;20503;50.200;19.508;2023-05-20T13:47:57;18;17;13
34240;PMS7003;20503;50.200;19.508;2023-05-20T13:53:05;18;17;12
34240;PMS7003;20503;50.200;19.508;2023-05-20T13:58:12;16;15;11
34240;PMS7003;20503;50.200;19.508;2023-05-20T14:03:20;20;14;11
34240;PMS7003;20503;50.200;19.508;2023-05-20T14:08:28;18;17;12
34240;PMS7003;20503;50.200;19.508;2023-05-20T14:13:36;23;19;12
34240;PMS7003;20503;50.200;19.508;2023-05-20T14:18:44;20;17;12
34240;PMS7003;20503;50.200;19.508;2023-05-20T14:23:51;20;17;12
34240;PMS7003;20503;50.200;19.508;2023-05-20T14:28:59;18;16;10
34240;PMS7003;20503;50.200;19.508;2023-05-20T14:34:07;20;14;10
34240;PMS7003;20503;50.200;19.508;2023-05-20T14:39:14;16;15;10
34240;PMS7003;20503;50.200;19.508;2023-05-20T14:44:22;19;16;12
34240;PMS7003;20503;50.200;19.508;2023-05-20T14:49:30;21;19;12
34240;PMS7003;20503;50.200;19.508;2023-05-20T14:54:38;17;16;11
34240;PMS7003;20503;50.200;19.508;2023-05-20T14:59:46;17;16;12
34240;PMS7003;20503;50.200;19.508;2023-05-20T15:04:54;20;16;12
34240;PMS7003;20503;50.200;19.508;2023-05-20T15:10:03;20;17;12
34240;PMS7003;20503;50.200;19.508;2023-05-20T15:15:10;23;17;12
34240;PMS7003;20503;50.200;19.508;2023-05-20T15:20:18;18;17;12
34240;PMS7003;20503;50.200;19.508;2023-05-20T15:25:25;18;17;12
34240;PMS7003;20503;50.200;19.508;2023-05-20T15:30:33;19;18;12
34240;PMS7003;20503;50.200;19.508;2023-05-20T15:35:41;22;19;13
34240;PMS7003;20503;50.200;19.508;2023-05-20T15:40:49;21;18;12
34240;PMS7003;20503;50.200;19.508;2023-05-20T15:45:57;18;15;12
34240;PMS7003;20503;50.200;19.508;2023-05-20T15:51:05;24;18;12
34240;PMS7003;20503;50.200;19.508;2023-05-20T15:56:13;20;18;12
34240;PMS7003;20503;50.200;19.508;2023-05-20T16:01:21;18;17;11
34240;PMS7003;20503;50.200;19.508;2023-05-20T16:06:29;21;17;12
34240;PMS7003;20503;50.200;19.508;2023-05-20T16:11:37;19;16;11
34240;PMS7003;20503;50.200;19.508;2023-05-20T16:16:45;18;18;11
34240;PMS7003;20503;50.200;19.508;2023-05-20T16:21:53;17;16;11
34240;PMS7003;20503;50.200;19.508;2023-05-20T16:27:01;20;18;11
34240;PMS7003;20503;50.200;19.508;2023-05-20T16:32:09;19;17;11
34240;PMS7003;20503;50.200;19.508;2023-05-20T16:37:17;19;18;12
34240;PMS7003;20503;50.200;19.508;2023-05-20T16:42:25;16;15;12
34240;PMS7003;20503;50.200;19.508;2023-05-20T16:47:33;21;18;12
34240;PMS7003;20503;50.200;19.508;2023-05-20T16:56:27;18;16;12
34240;PMS7003;20503;50.200;19.508;2023-05-20T17:01:35;17;16;12
34240;PMS7003;20503;50.200;19.508;2023-05-20T17:06:42;19;16;12
34240;PMS7003;20503;50.200;19.508;2023-05-20T17:11:50;21;19;13
34240;PMS7003;20503;50.200;19.508;2023-05-20T17:16:58;22;18;12
34240;PMS7003;20503;50.200;19.508;2023-05-20T17:22:06;20;18;12
34240;PMS7003;20503;50.200;19.508;2023-05-20T17:27:14;17;17;11
34240;PMS7003;20503;50.200;19.508;2023-05-20T17:32:21;18;17;12
34240;PMS7003;20503;50.200;19.508;2023-05-20T17:37:29;20;17;12
34240;PMS7003;20503;50.200;19.508;2023-05-20T17:42:38;19;18;11
34240;PMS7003;20503;50.200;19.508;2023-05-20T17:47:44;17;16;12
34240;PMS7003;20503;50.200;19.508;2023-05-20T17:52:52;20;16;12
34240;PMS7003;20503;50.200;19.508;2023-05-20T17:58:03;19;16;12
34240;PMS7003;20503;50.200;19.508;2023-05-20T18:03:08;16;16;11
34240;PMS7003;20503;50.200;19.508;2023-05-20T18:08:16;17;14;11
34240;PMS7003;20503;50.200;19.508;2023-05-20T18:13:23;15;15;12
34240;PMS7003;20503;50.200;19.508;2023-05-20T18:18:31;19;16;12
34240;PMS7003;20503;50.200;19.508;2023-05-20T18:23:39;18;16;11
34240;PMS7003;20503;50.200;19.508;2023-05-20T18:28:46;16;14;10
34240;PMS7003;20503;50.200;19.508;2023-05-20T18:33:54;16;15;10
34240;PMS7003;20503;50.200;19.508;2023-05-20T18:39:02;15;14;10
34240;PMS7003;20503;50.200;19.508;2023-05-20T18:44:09;15;14;10
34240;PMS7003;20503;50.200;19.508;2023-05-20T18:49:17;19;17;10
34240;PMS7003;20503;50.200;19.508;2023-05-20T18:54:24;18;15;10
34240;PMS7003;20503;50.200;19.508;2023-05-20T18:59:32;16;14;9
34240;PMS7003;20503;50.200;19.508;2023-05-20T19:04:40;15;14;10
34240;PMS7003;20503;50.200;19.508;2023-05-20T19:09:48;17;14;10
34240;PMS7003;20503;50.200;19.508;2023-05-20T19:14:56;15;14;9
34240;PMS7003;20503;50.200;19.508;2023-05-20T19:20:03;15;14;9
34240;PMS7003;20503;50.200;19.508;2023-05-20T19:25:10;14;14;8
34240;PMS7003;20503;50.200;19.508;2023-05-20T19:30:18;14;12;9
34240;PMS7003;20503;50.200;19.508;2023-05-20T19:35:26;14;14;10
34240;PMS7003;20503;50.200;19.508;2023-05-20T19:40:34;15;12;8
34240;PMS7003;20503;50.200;19.508;2023-05-20T19:45:41;14;13;9
34240;PMS7003;20503;50.200;19.508;2023-05-20T19:50:49;13;12;9
34240;PMS7003;20503;50.200;19.508;2023-05-20T19:55:56;14;12;9
34240;PMS7003;20503;50.200;19.508;2023-05-20T20:01:04;11;11;8
34240;PMS7003;20503;50.200;19.508;2023-05-20T20:06:12;14;12;9
34240;PMS7003;20503;50.200;19.508;2023-05-20T20:11:20;14;13;10
34240;PMS7003;20503;50.200;19.508;2023-05-20T20:16:27;16;14;10
34240;PMS7003;20503;50.200;19.508;2023-05-20T20:21:35;11;10;8
34240;PMS7003;20503;50.200;19.508;2023-05-20T20:26:43;12;11;8
34240;PMS7003;20503;50.200;19.508;2023-05-20T20:31:52;13;10;8
34240;PMS7003;20503;50.200;19.508;2023-05-20T20:36:59;14;13;9
34240;PMS7003;20503;50.200;19.508;2023-05-20T20:42:06;11;11;8
34240;PMS7003;20503;50.200;19.508;2023-05-20T20:47:14;17;13;9
34240;PMS7003;20503;50.200;19.508;2023-05-20T20:52:22;13;12;8
34240;PMS7003;20503;50.200;19.508;2023-05-20T20:57:29;13;13;8
34240;PMS7003;20503;50.200;19.508;2023-05-20T21:02:37;14;12;9
34240;PMS7003;20503;50.200;19.508;2023-05-20T21:07:44;12;10;8
34240;PMS7003;20503;50.200;19.508;2023-05-20T21:12:51;15;14;9
34240;PMS7003;20503;50.200;19.508;2023-05-20T21:17:59;15;13;8
34240;PMS7003;20503;50.200;19.508;2023-05-20T21:23:07;13;11;8
34240;PMS7003;20503;50.200;19.508;2023-05-20T21:28:15;13;12;8
34240;PMS7003;20503;50.200;19.508;2023-05-20T21:33:23;13;12;8
34240;PMS7003;20503;50.200;19.508;2023-05-20T21:38:30;15;11;9
34240;PMS7003;20503;50.200;19.508;2023-05-20T21:43:38;14;13;10
34240;PMS7003;20503;50.200;19.508;2023-05-20T21:48:46;15;12;9
34240;PMS7003;20503;50.200;19.508;2023-05-20T21:53:54;12;12;8
34240;PMS7003;20503;50.200;19.508;2023-05-20T21:59:02;12;12;9
34240;PMS7003;20503;50.200;19.508;2023-05-20T22:04:09;14;12;9
34240;PMS7003;20503;50.200;19.508;2023-05-20T22:09:17;15;14;9
34240;PMS7003;20503;50.200;19.508;2023-05-20T22:14:24;16;14;10
34240;PMS7003;20503;50.200;19.508;2023-05-20T22:19:32;14;13;10
34240;PMS7003;20503;50.200;19.508;2023-05-20T22:24:40;16;13;10
34240;PMS7003;20503;50.200;19.508;2023-05-20T22:29:47;13;13;10
34240;PMS7003;20503;50.200;19.508;2023-05-20T22:34:55;15;13;10
34240;PMS7003;20503;50.200;19.508;2023-05-20T22:40:03;16;14;10
34240;PMS7003;20503;50.200;19.508;2023-05-20T22:45:11;13;11;9
34240;PMS7003;20503;50.200;19.508;2023-05-20T22:50:18;16;14;10
34240;PMS7003;20503;50.200;19.508;2023-05-20T22:55:26;16;15;11
34240;PMS7003;20503;50.200;19.508;2023-05-20T23:00:34;15;12;10
34240;PMS7003;20503;50.200;19.508;2023-05-20T23:05:41;14;13;10
34240;PMS7003;20503;50.200;19.508;2023-05-20T23:10:49;16;13;10
34240;PMS7003;20503;50.200;19.508;2023-05-20T23:15:57;14;14;10
34240;PMS7003;20503;50.200;19.508;2023-05-20T23:21:04;12;12;9
34240;PMS7003;20503;50.200;19.508;2023-05-20T23:26:12;15;13;10
34240;PMS7003;20503;50.200;19.508;2023-05-20T23:31:19;13;12;8
34240;PMS7003;20503;50.200;19.508;2023-05-20T23:36:27;15;13;10
34240;PMS7003;20503;50.200;19.508;2023-05-20T23:41:35;14;12;10
34240;PMS7003;20503;50.200;19.508;2023-05-20T23:46:42;14;13;10
34240;PMS7003;20503;50.200;19.508;2023-05-20T23:51:50;16;15;11
34240;PMS7003;20503;50.200;19.508;2023-05-20T23:56:57;14;12;10
